Time;durP1;ratioP1;P1;durP2;ratioP2;P2;SDS_P1;SDS_P2;PMS_P1;PMS_P2;Temp;Humidity;BMP_temperature;BMP_pressure;BME280_temperature;BME280_humidity;BME280_pressure;Samples;Min_cycle;Max_cycle;Signal;HPM_P1;HPM_P2
2023/04/21 00:00:19;;;;;;;12.80;8.17;;;9.20;89.70;;;9.53;73.30;97612.66;5052583;28;20538;-76
2023/04/21 00:03:07;;;;;;;14.10;9.70;;;9.20;89.90;;;9.66;72.82;97616.31;5046532;28;20452;-75
2023/04/21 00:05:53;;;;;;;11.70;7.50;;;9.10;90.30;;;9.41;73.19;97584.75;5045201;28;20702;-76
2023/04/21 00:08:39;;;;;;;12.97;9.20;;;9.00;90.30;;;9.63;72.83;97606.78;5048324;28;20460;-75
2023/04/21 00:11:24;;;;;;;14.47;8.53;;;9.00;90.60;;;9.58;72.72;97606.63;5042255;28;20464;-75
2023/04/21 00:14:10;;;;;;;14.63;10.70;;;9.00;90.30;;;9.65;72.55;97607.38;5044801;28;20519;-75
2023/04/21 00:16:56;;;;;;;14.00;8.43;;;9.10;90.30;;;9.33;74.20;97599.31;5037903;28;20466;-76
2023/04/21 00:19:43;;;;;;;13.77;9.03;;;9.00;90.60;;;9.28;73.87;97599.16;5050787;28;20443;-75
2023/04/21 00:22:29;;;;;;;14.10;9.20;;;8.90;90.50;;;9.26;73.62;97593.16;5046660;28;20446;-76
2023/04/21 00:25:14;;;;;;;14.70;8.63;;;8.80;90.60;;;9.08;74.12;97592.00;5049909;28;20923;-77
2023/04/21 00:28:00;;;;;;;14.97;10.13;;;8.50;91.30;;;9.03;74.67;97589.97;5052293;28;20549;-76
2023/04/21 00:30:46;;;;;;;13.90;8.50;;;8.40;92.30;;;9.06;74.27;97577.91;5042425;28;20450;-75
2023/04/21 00:33:32;;;;;;;14.10;8.27;;;8.40;92.30;;;8.62;75.28;97540.03;5056970;28;20446;-74
2023/04/21 00:36:19;;;;;;;12.53;8.30;;;8.30;92.30;;;8.88;74.88;97574.09;5042588;28;20508;-75
2023/04/21 00:39:05;;;;;;;11.83;8.17;;;8.30;92.40;;;8.84;75.38;97570.19;5044995;28;20945;-79
2023/04/21 00:41:51;;;;;;;13.97;9.23;;;8.20;92.70;;;8.71;76.10;97568.34;5042274;28;20551;-76
2023/04/21 00:44:36;;;;;;;12.00;8.13;;;8.20;93.20;;;8.53;76.80;97562.84;5050250;28;20530;-77
2023/04/21 00:47:22;;;;;;;12.07;8.10;;;8.10;93.20;;;8.54;76.85;97567.19;5047782;28;20804;-76
2023/04/21 00:50:09;;;;;;;11.33;7.60;;;8.10;93.60;;;8.50;77.24;97581.09;5046616;28;20461;-78
2023/04/21 00:52:57;;;;;;;12.67;8.40;;;8.10;94.00;;;8.48;77.41;97572.38;5044992;28;20494;-77
2023/04/21 00:55:43;;;;;;;11.57;7.30;;;8.10;94.10;;;8.47;77.84;97565.34;5040248;28;20564;-78
2023/04/21 00:58:29;;;;;;;12.07;9.23;;;8.10;94.10;;;8.50;77.63;97567.63;5049789;28;20452;-76
2023/04/21 01:01:16;;;;;;;12.63;8.17;;;8.00;93.90;;;8.48;77.38;97566.97;5050064;28;21177;-76
2023/04/21 01:04:03;;;;;;;12.30;8.33;;;8.00;94.70;;;8.44;77.82;97560.38;5045573;28;20455;-77
2023/04/21 01:06:49;;;;;;;11.23;8.53;;;7.90;94.50;;;8.51;77.10;97571.16;5036937;28;20967;-78
2023/04/21 01:09:38;;;;;;;16.40;8.50;;;7.90;95.10;;;8.57;76.96;97580.22;5053375;28;20451;-78
2023/04/21 01:12:24;;;;;;;15.87;9.03;;;7.90;94.90;;;8.50;77.36;97564.94;5048226;28;20804;-79
2023/04/21 01:15:11;;;;;;;12.40;8.50;;;7.90;94.70;;;8.50;77.16;97564.13;5045593;28;20463;-76
2023/04/21 01:17:57;;;;;;;13.03;7.60;;;7.90;94.70;;;8.40;77.41;97572.59;5046550;28;20783;-77
2023/04/21 01:20:43;;;;;;;22.27;9.27;;;7.80;94.40;;;8.48;77.30;97572.38;5050035;28;20472;-76
2023/04/21 01:23:31;;;;;;;11.80;8.80;;;7.70;96.10;;;8.58;77.44;97573.81;5046528;28;20470;-78
2023/04/21 01:26:18;;;;;;;16.37;9.53;;;7.80;95.60;;;8.52;77.46;97571.97;5047978;28;20458;-76
2023/04/21 01:29:04;;;;;;;11.87;8.67;;;7.90;95.60;;;8.41;77.70;97552.72;5042160;28;20978;-78
2023/04/21 01:31:50;;;;;;;12.67;8.83;;;7.90;95.60;;;8.36;77.88;97561.44;5045944;28;20522;-77
2023/04/21 01:34:37;;;;;;;12.10;8.37;;;7.80;95.70;;;8.49;78.10;97586.63;5047052;28;20851;-76
2023/04/21 01:37:26;;;;;;;15.67;8.97;;;7.70;97.10;;;8.34;78.72;97579.69;5046805;28;20472;-76
2023/04/21 01:40:14;;;;;;;14.87;9.37;;;7.60;97.50;;;8.34;79.05;97589.59;5048213;28;20438;-76
2023/04/21 01:43:00;;;;;;;13.97;8.83;;;7.60;99.10;;;8.34;79.63;97589.59;5044577;28;21016;-78
2023/04/21 01:45:46;;;;;;;12.90;9.30;;;7.50;99.50;;;8.32;79.56;97592.50;5042291;28;20449;-77
2023/04/21 01:48:32;;;;;;;11.87;8.20;;;7.50;99.90;;;7.28;84.15;97590.28;5046222;28;20589;-77
2023/04/21 01:51:18;;;;;;;13.80;8.87;;;7.60;99.90;;;6.96;85.86;97568.53;5040747;28;20457;-78
2023/04/21 01:54:04;;;;;;;14.03;9.23;;;7.50;99.90;;;7.18;85.80;97601.44;5051697;28;20450;-77
2023/04/21 01:56:51;;;;;;;13.07;8.77;;;7.50;99.90;;;7.13;86.11;97595.03;5043930;28;20500;-77
2023/04/21 01:59:37;;;;;;;9.83;7.33;;;7.50;99.90;;;6.67;86.77;97543.69;5044947;28;20546;-78
2023/04/21 02:02:23;;;;;;;12.20;8.80;;;7.50;99.90;;;7.65;83.17;97590.72;5038648;28;20476;-77
2023/04/21 02:05:09;;;;;;;11.87;7.60;;;7.40;99.90;;;7.02;85.20;97605.31;5040157;28;20547;-77
2023/04/21 02:07:55;;;;;;;13.90;9.13;;;7.30;99.90;;;6.75;86.74;97602.59;5041898;28;20593;-76
2023/04/21 02:10:41;;;;;;;14.57;9.20;;;7.10;99.90;;;6.24;87.24;97531.34;5058785;28;20445;-78
2023/04/21 02:13:28;;;;;;;13.90;9.40;;;7.10;99.90;;;6.69;87.08;97599.88;5063244;28;20455;-79
2023/04/21 02:16:14;;;;;;;12.83;8.60;;;7.00;99.90;;;6.52;87.85;97603.72;5042632;28;20474;-76
2023/04/21 02:19:00;;;;;;;12.67;7.40;;;7.00;99.90;;;6.62;87.68;97600.66;5038633;28;20525;-77
2023/04/21 02:21:45;;;;;;;12.20;9.00;;;6.90;99.90;;;6.55;87.42;97598.97;5066606;28;20446;-77
2023/04/21 02:24:31;;;;;;;13.57;9.73;;;6.90;99.90;;;6.48;88.03;97597.09;5062266;28;20457;-75
2023/04/21 02:27:17;;;;;;;12.90;8.23;;;6.90;99.90;;;6.31;88.69;97587.72;5058653;28;20550;-75
2023/04/21 02:30:06;;;;;;;13.10;8.10;;;6.70;99.90;;;6.36;88.17;97594.13;5050937;28;20468;-77
2023/04/21 02:32:51;;;;;;;12.13;8.40;;;6.70;99.90;;;6.33;89.22;97588.34;5039182;28;20458;-76
2023/04/21 02:35:37;;;;;;;12.70;8.67;;;6.70;99.90;;;6.35;89.31;97586.28;5044361;28;20461;-77
2023/04/21 02:38:23;;;;;;;12.97;8.90;;;6.60;99.90;;;6.37;88.97;97584.22;5049524;28;20436;-79
2023/04/21 02:41:09;;;;;;;14.80;9.20;;;6.60;99.90;;;6.21;88.96;97578.16;5043476;28;20451;-79
2023/04/21 02:43:54;;;;;;;14.43;8.97;;;6.60;99.90;;;6.08;90.56;97578.09;5039750;28;21175;-79
2023/04/21 02:46:42;;;;;;;10.53;7.97;;;6.40;99.90;;;6.02;90.56;97576.22;5045410;28;20541;-78
2023/04/21 02:49:27;;;;;;;17.87;8.70;;;6.30;99.90;;;5.94;91.79;97574.47;5045766;28;20553;-78
2023/04/21 02:52:13;;;;;;;16.73;8.53;;;6.20;99.90;;;5.85;90.78;97559.56;5036186;28;20786;-77
2023/04/21 02:55:00;;;;;;;13.10;8.43;;;6.20;99.90;;;5.46;91.41;97505.47;5046690;28;20445;-76
2023/04/21 02:57:46;;;;;;;11.30;8.03;;;6.20;99.90;;;5.92;92.18;97577.34;5044694;28;20486;-77
2023/04/21 03:00:31;;;;;;;11.80;8.20;;;6.10;99.90;;;5.88;92.10;97570.72;5044752;28;20511;-76
2023/04/21 03:03:18;;;;;;;12.27;8.50;;;6.20;99.90;;;5.94;92.10;97571.81;5044749;28;20791;-77
2023/04/21 03:06:05;;;;;;;16.63;9.70;;;6.20;99.90;;;6.06;91.76;97572.09;5055208;28;20444;-77
2023/04/21 03:08:51;;;;;;;13.53;8.53;;;6.30;99.90;;;5.72;90.96;97518.22;5041374;28;20445;-78
2023/04/21 03:11:37;;;;;;;13.30;8.50;;;6.30;99.90;;;5.99;91.58;97577.38;5047570;28;20456;-77
2023/04/21 03:14:25;;;;;;;12.57;7.83;;;6.30;99.90;;;6.06;91.50;97574.78;5042983;28;20436;-78
2023/04/21 03:17:11;;;;;;;12.10;8.00;;;6.30;99.90;;;6.07;91.84;97579.13;5045043;28;20613;-78
2023/04/21 03:19:58;;;;;;;12.73;8.30;;;6.30;99.90;;;6.03;91.52;97557.22;5045459;28;20518;-80
2023/04/21 03:22:44;;;;;;;12.20;8.70;;;6.40;99.90;;;6.13;91.63;97578.31;5041137;28;20532;-77
2023/04/21 03:25:29;;;;;;;11.80;7.63;;;6.30;99.90;;;6.23;91.29;97578.78;5046915;28;20588;-75
2023/04/21 03:28:15;;;;;;;11.97;8.53;;;6.50;99.90;;;6.23;91.42;97573.44;5046451;28;20852;-75
2023/04/21 03:31:01;;;;;;;13.80;9.40;;;6.50;99.90;;;5.86;91.15;97524.53;5042872;28;20452;-78
2023/04/21 03:33:47;;;;;;;13.90;8.97;;;6.50;99.90;;;6.15;92.05;97584.34;5040291;28;20448;-77
2023/04/21 03:36:34;;;;;;;11.50;7.10;;;6.50;99.90;;;6.14;91.46;97582.69;5045252;28;20854;-77
2023/04/21 03:39:19;;;;;;;14.03;9.10;;;6.40;99.90;;;6.21;91.70;97582.69;5036977;28;20450;-77
2023/04/21 03:42:05;;;;;;;12.10;7.93;;;6.50;99.90;;;6.31;91.48;97579.69;5041544;28;21332;-78
2023/04/21 03:44:51;;;;;;;12.60;8.70;;;6.60;99.90;;;6.38;92.06;97585.88;5034354;28;20441;-80
2023/04/21 03:47:37;;;;;;;13.27;8.60;;;6.60;99.90;;;6.45;91.70;97592.13;5049429;28;20470;-78
2023/04/21 03:50:23;;;;;;;13.63;8.97;;;6.70;99.90;;;6.41;91.04;97585.47;5042651;28;20453;-79
2023/04/21 03:53:10;;;;;;;14.33;8.00;;;6.80;99.90;;;6.28;91.26;97572.84;5048853;28;20764;-79
2023/04/21 03:55:56;;;;;;;15.83;8.00;;;6.80;99.90;;;6.36;91.56;97593.31;5042092;28;20445;-77
2023/04/21 03:58:43;;;;;;;13.63;7.43;;;6.70;99.90;;;6.35;91.35;97599.72;5049979;28;20583;-78
2023/04/21 04:01:29;;;;;;;12.90;8.87;;;6.70;99.90;;;6.26;91.72;97587.47;5042552;28;20457;-77
2023/04/21 04:04:15;;;;;;;14.30;9.20;;;6.60;99.90;;;5.78;91.45;97516.63;5040583;28;20445;-76
2023/04/21 04:07:00;;;;;;;11.63;8.80;;;6.50;99.90;;;6.16;91.04;97577.09;5041626;28;20522;-76
2023/04/21 04:09:48;;;;;;;14.33;9.03;;;6.50;99.90;;;6.24;91.36;97579.63;5045997;28;20436;-77
2023/04/21 04:12:34;;;;;;;15.00;8.93;;;6.50;99.90;;;6.06;91.70;97578.28;5049060;28;20460;-77
2023/04/21 04:15:20;;;;;;;11.53;8.27;;;6.40;99.90;;;5.86;93.17;97585.34;5041619;28;20457;-76
2023/04/21 04:18:06;;;;;;;16.83;9.27;;;6.20;99.90;;;5.89;93.16;97588.47;5043610;28;20628;-78
2023/04/21 04:20:51;;;;;;;9.80;7.50;;;6.20;99.90;;;6.01;92.52;97586.09;5045177;28;20442;-78
2023/04/21 04:23:37;;;;;;;10.97;7.20;;;6.20;99.90;;;5.93;92.15;97579.00;5049019;28;22102;-77
2023/04/21 04:26:25;;;;;;;11.63;8.80;;;6.20;99.90;;;5.94;91.85;97569.13;5044399;28;20442;-77
2023/04/21 04:29:12;;;;;;;11.70;7.20;;;6.30;99.90;;;5.86;93.37;97571.94;5040636;28;20459;-78
2023/04/21 04:32:00;;;;;;;10.23;8.47;;;6.20;99.90;;;6.19;92.20;97598.16;5050181;28;20527;-79
2023/04/21 04:34:46;;;;;;;10.87;7.50;;;6.50;99.90;;;6.62;90.15;97586.41;5062324;28;20450;-77
2023/04/21 04:37:33;;;;;;;13.30;8.43;;;6.90;99.90;;;6.66;89.04;97593.03;5038759;28;20475;-78
2023/04/21 04:40:19;;;;;;;13.83;8.57;;;7.10;99.90;;;7.05;88.45;97596.88;5040617;28;20933;-74
2023/04/21 04:43:07;;;;;;;12.60;8.00;;;7.40;99.90;;;7.11;86.35;97592.53;5049258;28;20905;-74
2023/04/21 04:45:53;;;;;;;12.30;7.80;;;7.50;99.90;;;6.90;86.60;97594.34;5044227;28;20450;-75
2023/04/21 04:48:39;;;;;;;13.47;9.37;;;7.30;99.30;;;6.70;87.31;97591.59;5037737;28;20530;-75
2023/04/21 04:51:25;;;;;;;13.33;8.70;;;7.10;99.60;;;6.62;88.06;97597.16;5042752;28;20490;-73
2023/04/21 04:54:10;;;;;;;11.83;8.80;;;7.00;99.90;;;6.52;88.24;97598.34;5040914;28;20455;-74
2023/04/21 04:56:57;;;;;;;10.50;7.30;;;6.90;99.90;;;6.49;88.42;97592.53;5036978;28;20478;-72
2023/04/21 04:59:45;;;;;;;11.60;8.37;;;6.80;99.90;;;6.43;89.10;97588.78;5050382;28;20462;-73
2023/04/21 05:02:31;;;;;;;14.60;9.83;;;6.80;99.90;;;6.49;89.09;97588.00;5053937;28;20456;-71
2023/04/21 05:05:16;;;;;;;11.87;7.60;;;6.80;99.90;;;6.41;89.12;97580.13;5041809;28;20444;-73
2023/04/21 05:08:02;;;;;;;9.40;7.53;;;6.80;99.90;;;6.55;88.98;97585.53;5044998;28;20478;-74
2023/04/21 05:10:47;;;;;;;12.43;8.70;;;6.80;99.90;;;6.59;88.92;97593.00;5040493;28;20535;-74
2023/04/21 05:13:33;;;;;;;11.70;8.70;;;6.90;99.90;;;6.79;87.91;97593.09;5053324;28;20453;-75
2023/04/21 05:16:20;;;;;;;16.57;7.80;;;7.10;99.90;;;6.98;86.94;97604.09;5058122;28;20450;-74
2023/04/21 05:19:06;;;;;;;14.50;10.43;;;7.30;99.90;;;7.14;86.08;97600.22;5060640;28;20450;-72
2023/04/21 05:21:52;;;;;;;13.73;8.57;;;7.50;99.70;;;7.45;85.61;97616.78;5034453;28;20449;-73
2023/04/21 05:24:38;;;;;;;14.10;8.97;;;7.70;97.80;;;7.55;85.47;97603.78;5032744;28;20443;-73
2023/04/21 05:27:23;;;;;;;14.33;8.90;;;7.90;97.00;;;8.19;85.78;97596.06;5039323;28;20948;-74
2023/04/21 05:30:10;;;;;;;16.10;8.70;;;8.40;99.70;;;8.47;82.24;97586.88;5032604;28;21427;-71
2023/04/21 05:32:57;;;;;;;13.60;8.70;;;8.80;94.90;;;8.30;79.88;97601.84;5032159;28;20465;-71
2023/04/21 05:35:44;;;;;;;15.03;9.33;;;9.00;90.60;;;8.13;80.94;97586.16;5037540;28;20462;-71
2023/04/21 05:38:30;;;;;;;14.00;9.63;;;8.90;90.90;;;8.08;81.27;97589.47;5040408;28;20534;-72
2023/04/21 05:41:16;;;;;;;9.53;7.57;;;8.80;90.80;;;8.29;82.05;97598.31;5043540;28;21669;-72
2023/04/21 05:44:01;;;;;;;12.50;8.30;;;8.90;91.80;;;8.30;80.65;97594.56;5044636;28;20498;-71
2023/04/21 05:46:47;;;;;;;11.40;8.40;;;9.00;90.90;;;8.50;80.18;97591.84;5041106;28;20444;-71
2023/04/21 05:49:34;;;;;;;12.50;9.20;;;9.00;90.90;;;8.28;80.63;97593.97;5037588;28;20447;-73
2023/04/21 05:52:20;;;;;;;13.23;8.30;;;8.90;91.10;;;8.35;80.75;97602.88;5042093;28;20440;-72
2023/04/21 05:55:07;;;;;;;14.07;9.13;;;8.80;91.50;;;8.38;80.98;97590.00;5046356;28;20459;-72
2023/04/21 05:57:53;;;;;;;12.50;9.23;;;8.90;91.50;;;8.93;81.36;97592.31;5040194;28;20469;-70
2023/04/21 06:00:39;;;;;;;10.90;7.97;;;9.10;92.50;;;9.35;78.36;97598.06;5053632;28;20450;-70
2023/04/21 06:03:24;;;;;;;15.43;8.93;;;9.50;90.90;;;9.93;76.67;97595.34;5052045;28;20442;-71
2023/04/21 06:06:13;;;;;;;10.10;8.00;;;10.10;89.60;;;10.23;73.72;97597.31;5044270;28;20794;-72
2023/04/21 06:08:59;;;;;;;10.30;7.87;;;10.50;86.40;;;10.62;71.98;97599.84;5042010;28;20525;-73
2023/04/21 06:11:45;;;;;;;11.60;8.10;;;10.80;85.00;;;10.38;72.75;97593.44;5048202;28;20432;-74
2023/04/21 06:14:31;;;;;;;10.93;7.90;;;10.90;84.10;;;10.69;73.90;97603.31;5048045;28;21302;-72
2023/04/21 06:17:17;;;;;;;10.73;8.50;;;10.90;86.40;;;10.91;70.99;97609.03;5031831;28;20559;-73
2023/04/21 06:20:04;;;;;;;11.47;8.27;;;11.20;84.30;;;10.48;72.67;97605.41;5040405;28;20597;-73
2023/04/21 06:22:51;;;;;;;12.73;9.00;;;11.00;84.00;;;10.96;72.09;97615.66;5035130;28;20542;-74
2023/04/21 06:25:37;;;;;;;18.57;8.67;;;11.20;84.40;;;11.11;71.30;97601.72;5034624;28;20842;-74
2023/04/21 06:28:22;;;;;;;9.57;8.33;;;11.40;84.10;;;10.67;71.55;97597.28;5050184;28;20795;-75
2023/04/21 06:31:08;;;;;;;11.90;9.40;;;11.20;83.30;;;10.44;72.86;97603.38;5043287;28;20528;-73
2023/04/21 06:33:54;;;;;;;11.50;8.00;;;11.00;83.60;;;10.33;73.50;97596.81;5029414;28;20519;-72
2023/04/21 06:36:39;;;;;;;8.70;6.83;;;10.80;84.00;;;10.39;73.18;97606.72;5037848;28;20584;-73
2023/04/21 06:39:27;;;;;;;10.77;8.17;;;10.80;84.20;;;10.67;72.65;97596.47;5046617;28;20470;-74
2023/04/21 06:42:12;;;;;;;13.90;9.60;;;11.00;84.30;;;10.93;71.40;97599.91;5049623;28;20473;-73
2023/04/21 06:44:58;;;;;;;13.03;8.93;;;11.20;83.60;;;10.79;71.54;97577.59;5033818;28;20906;-72
2023/04/21 06:47:45;;;;;;;12.30;8.67;;;11.30;83.60;;;11.14;70.52;97591.28;5036669;28;21030;-73
2023/04/21 06:50:31;;;;;;;9.93;7.97;;;11.50;83.00;;;11.77;68.31;97589.06;5041230;28;20504;-73
2023/04/21 06:53:17;;;;;;;9.67;7.47;;;11.90;82.90;;;12.12;67.11;97590.19;5046077;28;20488;-73
2023/04/21 06:56:05;;;;;;;14.83;8.90;;;12.30;81.60;;;12.23;67.27;97591.22;5044133;28;20559;-73
2023/04/21 06:58:51;;;;;;;11.00;8.93;;;12.60;81.20;;;12.27;66.43;97588.88;5043337;28;20521;-72
2023/04/21 07:01:36;;;;;;;9.13;7.87;;;12.60;80.70;;;12.17;66.05;97593.00;5040903;28;20475;-72
2023/04/21 07:04:22;;;;;;;10.20;7.77;;;12.60;80.10;;;11.95;66.88;97589.22;5038396;28;20436;-73
2023/04/21 07:07:08;;;;;;;11.47;8.00;;;12.40;80.50;;;11.55;67.52;97599.63;5045069;28;20993;-72
2023/04/21 07:09:54;;;;;;;9.47;6.80;;;12.00;80.50;;;11.52;69.56;97608.22;5047181;28;20478;-70
2023/04/21 07:12:41;;;;;;;10.00;7.80;;;11.80;81.60;;;11.77;68.02;97599.09;5048261;28;20531;-72
2023/04/21 07:15:26;;;;;;;10.30;7.40;;;12.00;81.50;;;12.14;66.66;97598.09;5045096;28;20834;-71
2023/04/21 07:18:12;;;;;;;9.50;7.27;;;12.30;80.80;;;11.80;66.82;97590.50;5043148;28;20479;-72
2023/04/21 07:20:58;;;;;;;8.60;7.00;;;12.40;80.10;;;12.00;66.36;97594.72;5040377;28;20435;-72
2023/04/21 07:23:43;;;;;;;8.60;7.40;;;12.40;80.30;;;12.08;66.13;97604.41;5037421;28;20498;-72
2023/04/21 07:26:29;;;;;;;10.53;8.47;;;12.50;79.80;;;12.22;65.44;97605.84;5049437;28;20482;-73
2023/04/21 07:29:16;;;;;;;11.30;7.70;;;12.60;79.90;;;12.29;65.33;97605.72;5044956;28;20551;-72
2023/04/21 07:32:02;;;;;;;11.10;7.83;;;12.70;79.60;;;12.54;64.34;97601.94;5044506;28;20443;-72
2023/04/21 07:34:48;;;;;;;9.43;6.83;;;12.80;79.10;;;12.64;64.18;97599.41;5050155;28;20439;-75
2023/04/21 07:37:34;;;;;;;10.30;8.13;;;13.00;79.10;;;12.35;64.92;97598.53;5049956;28;20447;-72
2023/04/21 07:40:20;;;;;;;11.63;7.50;;;12.90;78.60;;;12.34;64.68;97597.69;5050465;28;20543;-73
2023/04/21 07:43:05;;;;;;;8.97;6.27;;;12.80;78.70;;;12.29;65.17;97603.00;5044364;28;20444;-72
2023/04/21 07:45:52;;;;;;;9.63;7.30;;;12.80;78.90;;;12.56;64.53;97592.47;5049692;28;20449;-72
2023/04/21 07:48:40;;;;;;;8.83;6.73;;;12.90;78.90;;;13.01;63.53;97585.53;5048908;28;20531;-74
2023/04/21 07:51:27;;;;;;;9.73;6.17;;;13.20;79.10;;;12.94;62.89;97586.72;5042521;28;20939;-72
2023/04/21 07:54:12;;;;;;;8.90;6.97;;;13.30;78.20;;;12.97;63.26;97584.38;5050166;28;20939;-75
2023/04/21 07:56:58;;;;;;;10.93;7.00;;;13.30;78.10;;;12.57;63.13;97593.31;5046729;28;20784;-72
2023/04/21 07:59:44;;;;;;;11.87;7.00;;;13.20;77.40;;;12.60;63.95;97585.53;5049244;28;20615;-72
2023/04/21 08:02:31;;;;;;;8.30;6.40;;;13.10;78.00;;;12.81;62.99;97588.66;5048363;28;20485;-72
2023/04/21 08:05:17;;;;;;;8.03;6.33;;;13.20;77.90;;;12.86;63.19;97593.34;5050481;28;20443;-73
2023/04/21 08:08:03;;;;;;;7.00;5.90;;;13.20;77.80;;;13.09;62.21;97578.06;5055622;28;20502;-72
2023/04/21 08:10:49;;;;;;;8.90;6.50;;;13.50;77.30;;;13.14;62.37;97594.44;5055807;28;20939;-74
2023/04/21 08:13:35;;;;;;;9.10;5.97;;;13.50;77.10;;;13.47;59.81;97587.47;5049988;28;20459;-73
2023/04/21 08:16:20;;;;;;;6.00;4.80;;;13.80;75.90;;;13.31;59.42;97583.59;5047925;28;20451;-74
2023/04/21 08:19:08;;;;;;;6.70;5.57;;;13.80;74.40;;;13.50;58.05;97562.53;5049693;28;20475;-73
2023/04/21 08:21:57;;;;;;;8.00;5.80;;;14.00;73.80;;;13.64;57.87;97576.59;5041880;28;20505;-70
2023/04/21 08:24:43;;;;;;;6.37;5.70;;;14.00;73.10;;;13.85;58.36;97577.75;5045344;28;20466;-72
2023/04/21 08:27:28;;;;;;;5.20;4.70;;;14.10;73.40;;;13.71;57.51;97577.28;5042397;28;20848;-72
2023/04/21 08:30:15;;;;;;;5.63;4.60;;;14.10;72.20;;;13.70;56.94;97574.78;5051958;28;20483;-72
2023/04/21 08:33:00;;;;;;;5.23;4.50;;;14.10;71.90;;;13.69;57.14;97584.84;5044981;28;20474;-72
2023/04/21 08:35:47;;;;;;;7.90;4.50;;;14.10;71.20;;;13.84;56.52;97578.03;5041214;28;20432;-73
2023/04/21 08:38:34;;;;;;;6.13;4.97;;;14.20;71.20;;;13.81;56.16;97573.91;5045959;28;20497;-73
2023/04/21 08:41:20;;;;;;;5.53;4.77;;;14.30;70.20;;;14.07;55.56;97585.16;5048551;28;20944;-73
2023/04/21 08:44:06;;;;;;;6.80;4.77;;;14.40;70.30;;;14.29;55.04;97570.78;5045763;28;20866;-74
2023/04/21 08:46:52;;;;;;;5.40;4.17;;;14.60;69.90;;;14.03;55.64;97582.13;5044460;28;20493;-73
2023/04/21 08:49:39;;;;;;;4.23;3.53;;;14.40;69.10;;;14.31;54.23;97574.06;5044031;28;20475;-72
2023/04/21 08:52:26;;;;;;;6.33;4.40;;;14.70;68.60;;;14.61;54.23;97577.47;5048239;28;21061;-73
2023/04/21 08:55:12;;;;;;;4.87;4.37;;;14.90;68.70;;;14.19;54.65;97578.81;5045457;28;20520;-73
2023/04/21 08:57:58;;;;;;;4.43;3.60;;;14.70;67.80;;;14.11;54.11;97580.06;5042519;28;20503;-73
2023/04/21 09:00:44;;;;;;;5.37;3.97;;;14.60;67.50;;;14.20;54.29;97583.16;5039374;28;20432;-72
2023/04/21 09:03:30;;;;;;;6.10;4.07;;;14.60;67.60;;;14.34;54.26;97568.16;5044162;28;20527;-71
2023/04/21 09:06:16;;;;;;;6.10;4.57;;;14.60;67.70;;;14.26;54.21;97571.28;5044249;28;20883;-73
2023/04/21 09:09:04;;;;;;;5.73;5.20;;;14.70;66.90;;;14.60;53.63;97571.19;5041965;28;20892;-72
2023/04/21 09:11:55;;;;;;;5.50;4.00;;;14.90;67.00;;;14.93;52.80;97579.50;5040646;28;20445;-73
2023/04/21 09:14:43;;;;;;;7.00;5.47;;;15.10;66.80;;;15.11;52.60;97576.44;5044780;28;20924;-72
2023/04/21 09:17:32;;;;;;;4.70;4.07;;;15.30;66.20;;;14.84;53.33;97579.13;5047858;28;20425;-73
2023/04/21 09:20:21;;;;;;;6.20;4.33;;;15.30;66.00;;;14.96;52.69;97563.50;5047463;28;21098;-72
2023/04/21 09:23:06;;;;;;;5.70;3.70;;;15.30;66.20;;;15.20;52.27;97576.78;5043542;28;20445;-73
2023/04/21 09:25:54;;;;;;;4.60;4.07;;;15.50;65.60;;;15.18;51.65;97568.06;5046488;28;20792;-73
2023/04/21 09:28:44;;;;;;;5.87;3.27;;;15.50;65.10;;;15.23;51.01;97567.31;5046743;28;20594;-72
2023/04/21 09:31:35;;;;;;;4.23;3.83;;;15.60;63.70;;;15.11;51.23;97564.75;5046268;28;20434;-73
2023/04/21 09:34:25;;;;;;;5.10;4.27;;;15.50;63.80;;;15.76;50.09;97553.88;5048305;28;20449;-73
2023/04/21 09:37:12;;;;;;;4.03;2.93;;;15.90;64.10;;;15.81;50.18;97553.91;5042829;28;20475;-74
2023/04/21 09:39:59;;;;;;;4.07;3.40;;;16.00;63.10;;;15.83;49.67;97559.91;5042594;28;20477;-74
2023/04/21 09:42:48;;;;;;;3.77;3.40;;;16.20;62.40;;;15.82;49.58;97555.56;5045593;28;20441;-73
2023/04/21 09:45:34;;;;;;;3.43;3.17;;;16.10;61.90;;;16.12;49.10;97551.44;5044101;28;20454;-74
2023/04/21 09:48:27;;;;;;;3.13;2.93;;;16.40;61.60;;;16.04;48.92;97559.28;5055491;28;20442;-72
2023/04/21 09:51:15;;;;;;;3.73;3.20;;;16.40;60.90;;;15.97;48.29;97500.41;5044810;28;20441;-72
2023/04/21 09:54:09;;;;;;;3.70;3.33;;;16.60;60.60;;;15.88;48.41;97517.47;5043597;28;20450;-73
2023/04/21 09:57:01;;;;;;;4.03;3.00;;;16.50;60.30;;;16.03;47.62;97538.56;5054273;28;20441;-72
2023/04/21 09:59:56;;;;;;;3.80;3.40;;;16.40;59.60;;;16.12;48.03;97551.44;5046513;28;21035;-72
2023/04/21 10:02:45;;;;;;;3.80;3.40;;;16.40;59.60;;;15.99;48.05;97557.34;5046945;28;20570;-73
2023/04/21 10:05:31;;;;;;;4.50;3.50;;;16.50;59.30;;;16.08;47.49;97547.59;5047921;28;20454;-73
2023/04/21 10:08:17;;;;;;;4.07;3.67;;;16.50;58.90;;;16.25;47.86;97552.06;5041438;28;20453;-71
2023/04/21 10:11:05;;;;;;;3.07;2.87;;;16.50;59.10;;;16.18;47.68;97549.56;5038587;28;20950;-72
2023/04/21 10:13:54;;;;;;;6.00;3.60;;;16.50;58.80;;;16.54;47.13;97544.31;5038516;28;20446;-73
2023/04/21 10:16:42;;;;;;;3.70;3.30;;;16.70;58.80;;;17.21;47.18;97531.97;5036955;28;20455;-74
2023/04/21 10:19:30;;;;;;;4.40;3.30;;;17.20;59.50;;;17.44;45.40;97527.06;5047546;28;20483;-74
2023/04/21 10:22:28;;;;;;;3.77;3.47;;;17.60;58.20;;;17.68;44.77;97487.19;5045616;28;20450;-74
2023/04/21 10:25:14;;;;;;;3.30;3.00;;;18.00;58.00;;;17.62;44.30;97520.25;5042012;28;20447;-73
2023/04/21 10:28:00;;;;;;;4.13;3.43;;;17.90;56.70;;;17.39;44.56;97514.25;5040982;28;20450;-73
2023/04/21 10:30:46;;;;;;;3.50;3.20;;;17.70;56.50;;;17.41;44.16;97523.00;5038568;28;20750;-74
2023/04/21 10:33:33;;;;;;;4.87;3.90;;;17.70;56.10;;;16.92;45.61;97525.09;5041479;28;20471;-71
2023/04/21 10:36:25;;;;;;;3.43;2.73;;;17.50;56.20;;;17.41;44.61;97523.00;5045625;28;20466;-72
2023/04/21 10:39:14;;;;;;;3.20;2.73;;;17.60;56.30;;;17.82;44.06;97514.78;5034375;28;20921;-73
2023/04/21 10:42:21;;;;;;;3.80;3.07;;;17.90;56.30;;;17.33;44.94;97515.34;5040843;28;20578;-73
2023/04/21 10:45:12;;;;;;;2.70;2.50;;;17.80;56.00;;;17.54;44.17;97514.25;5046166;28;20446;-72
2023/04/21 10:48:02;;;;;;;3.13;2.83;;;17.80;55.70;;;17.31;44.14;97446.53;5045292;28;20447;-75
2023/04/21 10:50:49;;;;;;;3.33;2.50;;;18.00;55.60;;;17.52;42.94;97504.69;5045393;28;21365;-72
2023/04/21 10:53:44;;;;;;;5.10;2.60;;;17.90;54.20;;;17.55;42.71;97496.78;5043802;28;20448;-73
2023/04/21 10:56:30;;;;;;;2.50;2.30;;;17.90;54.10;;;17.73;42.59;97496.47;5051501;28;20468;-71
2023/04/21 10:59:18;;;;;;;2.50;2.30;;;18.00;53.90;;;17.79;42.46;97504.41;5055807;28;21141;-73
2023/04/21 11:02:05;;;;;;;2.87;2.33;;;18.10;53.90;;;17.68;42.16;97498.13;5063728;28;20424;-71
2023/04/21 11:04:52;;;;;;;2.80;2.33;;;18.10;53.10;;;17.75;42.45;97500.59;5052178;28;20510;-71
2023/04/21 11:07:39;;;;;;;3.27;2.70;;;18.00;53.50;;;17.59;42.85;97501.69;5046813;28;20583;-72
2023/04/21 11:10:25;;;;;;;2.53;2.33;;;17.90;53.70;;;17.79;42.17;97487.19;5045839;28;20447;-72
2023/04/21 11:13:10;;;;;;;3.03;2.73;;;18.00;53.10;;;17.94;41.80;97483.59;5040031;28;20785;-70
2023/04/21 11:16:01;;;;;;;3.60;3.30;;;18.20;52.90;;;17.75;42.44;97486.13;5037620;28;20456;-71
2023/04/21 11:18:47;;;;;;;5.33;3.83;;;18.10;53.00;;;17.53;42.92;97477.13;5037165;28;20486;-71
2023/04/21 11:21:33;;;;;;;4.37;3.97;;;17.90;53.10;;;17.81;43.07;97471.34;5045774;28;20467;-73
2023/04/21 11:24:21;;;;;;;4.77;4.37;;;18.00;53.60;;;17.87;42.80;97474.88;5046862;28;20432;-71
2023/04/21 11:27:10;;;;;;;4.30;3.67;;;18.20;53.30;;;17.82;42.95;97471.09;5039803;28;20443;-72
2023/04/21 11:29:57;;;;;;;5.47;3.60;;;18.10;53.80;;;17.70;42.80;97470.56;5037579;28;21209;-71
2023/04/21 11:32:43;;;;;;;4.60;3.30;;;18.10;53.10;;;17.98;42.66;97468.31;5045176;28;21234;-72
2023/04/21 11:35:29;;;;;;;4.10;3.10;;;18.10;53.30;;;18.40;41.53;97461.63;5045554;28;20436;-71
2023/04/21 11:38:17;;;;;;;3.93;3.27;;;18.50;53.00;;;18.18;41.81;97461.97;5042912;28;20786;-71
2023/04/21 11:41:05;;;;;;;3.13;2.80;;;18.50;52.70;;;17.85;42.80;97447.84;5039900;28;20440;-71
2023/04/21 11:43:51;;;;;;;3.63;3.20;;;18.40;52.90;;;18.29;41.79;97451.00;5038573;28;20504;-72